sensor_id;sensor_type;location;lat;lon;timestamp;P1;durP1;ratioP1;P2;durP2;ratioP2
11427;SDS011;5770;44.504;11.346;2023-08-20T00:02:24;7.93;;;7.13;;
11427;SDS011;5770;44.504;11.346;2023-08-20T00:04:52;7.90;;;7.10;;
11427;SDS011;5770;44.504;11.346;2023-08-20T00:07:22;8.25;;;7.45;;
11427;SDS011;5770;44.504;11.346;2023-08-20T00:09:49;7.57;;;6.95;;
11427;SDS011;5770;44.504;11.346;2023-08-20T00:12:16;8.77;;;7.22;;
11427;SDS011;5770;44.504;11.346;2023-08-20T00:14:52;7.82;;;7.03;;
11427;SDS011;5770;44.504;11.346;2023-08-20T00:17:20;7.80;;;7.00;;
11427;SDS011;5770;44.504;11.346;2023-08-20T00:19:51;11.10;;;7.30;;
11427;SDS011;5770;44.504;11.346;2023-08-20T00:22:18;9.35;;;7.38;;
11427;SDS011;5770;44.504;11.346;2023-08-20T00:24:46;8.27;;;7.57;;
11427;SDS011;5770;44.504;11.346;2023-08-20T00:27:13;8.80;;;7.88;;
11427;SDS011;5770;44.504;11.346;2023-08-20T00:29:41;8.43;;;7.40;;
11427;SDS011;5770;44.504;11.346;2023-08-20T00:32:08;7.90;;;7.05;;
11427;SDS011;5770;44.504;11.346;2023-08-20T00:34:35;8.32;;;7.63;;
11427;SDS011;5770;44.504;11.346;2023-08-20T00:37:03;12.23;;;8.00;;
11427;SDS011;5770;44.504;11.346;2023-08-20T00:39:30;9.77;;;7.60;;
11427;SDS011;5770;44.504;11.346;2023-08-20T00:41:58;7.95;;;7.25;;
11427;SDS011;5770;44.504;11.346;2023-08-20T00:44:25;10.90;;;7.57;;
11427;SDS011;5770;44.504;11.346;2023-08-20T00:46:53;9.70;;;7.38;;
11427;SDS011;5770;44.504;11.346;2023-08-20T00:49:20;8.25;;;7.38;;
11427;SDS011;5770;44.504;11.346;2023-08-20T00:51:47;8.40;;;7.47;;
11427;SDS011;5770;44.504;11.346;2023-08-20T00:54:16;9.50;;;7.53;;
11427;SDS011;5770;44.504;11.346;2023-08-20T00:56:43;11.50;;;7.40;;
11427;SDS011;5770;44.504;11.346;2023-08-20T00:59:11;10.05;;;7.72;;
11427;SDS011;5770;44.504;11.346;2023-08-20T01:01:38;8.82;;;7.78;;
11427;SDS011;5770;44.504;11.346;2023-08-20T01:04:05;12.15;;;7.72;;
11427;SDS011;5770;44.504;11.346;2023-08-20T01:06:35;8.95;;;7.70;;
11427;SDS011;5770;44.504;11.346;2023-08-20T01:09:08;8.93;;;7.70;;
11427;SDS011;5770;44.504;11.346;2023-08-20T01:11:42;9.25;;;7.43;;
11427;SDS011;5770;44.504;11.346;2023-08-20T01:14:14;8.52;;;7.72;;
11427;SDS011;5770;44.504;11.346;2023-08-20T01:16:42;9.43;;;8.27;;
11427;SDS011;5770;44.504;11.346;2023-08-20T01:19:10;8.38;;;7.57;;
11427;SDS011;5770;44.504;11.346;2023-08-20T01:21:39;9.13;;;7.90;;
11427;SDS011;5770;44.504;11.346;2023-08-20T01:24:10;8.02;;;7.32;;
11427;SDS011;5770;44.504;11.346;2023-08-20T01:26:56;10.50;;;7.82;;
11427;SDS011;5770;44.504;11.346;2023-08-20T01:29:26;8.68;;;7.80;;
11427;SDS011;5770;44.504;11.346;2023-08-20T01:31:54;10.68;;;7.60;;
11427;SDS011;5770;44.504;11.346;2023-08-20T01:34:21;9.93;;;7.65;;
11427;SDS011;5770;44.504;11.346;2023-08-20T01:36:49;8.98;;;8.13;;
11427;SDS011;5770;44.504;11.346;2023-08-20T01:39:16;8.70;;;7.90;;
11427;SDS011;5770;44.504;11.346;2023-08-20T01:41:44;9.93;;;7.68;;
11427;SDS011;5770;44.504;11.346;2023-08-20T01:44:11;10.77;;;7.47;;
11427;SDS011;5770;44.504;11.346;2023-08-20T01:46:40;8.05;;;7.35;;
11427;SDS011;5770;44.504;11.346;2023-08-20T01:49:07;9.13;;;8.20;;
11427;SDS011;5770;44.504;11.346;2023-08-20T01:51:34;8.50;;;7.75;;
11427;SDS011;5770;44.504;11.346;2023-08-20T01:54:10;8.10;;;7.30;;
11427;SDS011;5770;44.504;11.346;2023-08-20T01:56:38;7.93;;;7.28;;
11427;SDS011;5770;44.504;11.346;2023-08-20T01:59:05;8.65;;;7.80;;
11427;SDS011;5770;44.504;11.346;2023-08-20T02:01:33;8.65;;;7.72;;
11427;SDS011;5770;44.504;11.346;2023-08-20T02:04:02;9.93;;;7.85;;
11427;SDS011;5770;44.504;11.346;2023-08-20T02:06:29;8.57;;;7.78;;
11427;SDS011;5770;44.504;11.346;2023-08-20T02:08:56;8.43;;;7.63;;
11427;SDS011;5770;44.504;11.346;2023-08-20T02:11:23;8.68;;;8.05;;
11427;SDS011;5770;44.504;11.346;2023-08-20T02:13:50;8.73;;;7.82;;
11427;SDS011;5770;44.504;11.346;2023-08-20T02:16:18;8.80;;;8.00;;
11427;SDS011;5770;44.504;11.346;2023-08-20T02:18:45;8.52;;;7.78;;
11427;SDS011;5770;44.504;11.346;2023-08-20T02:21:13;8.38;;;7.50;;
11427;SDS011;5770;44.504;11.346;2023-08-20T02:23:41;8.38;;;7.63;;
11427;SDS011;5770;44.504;11.346;2023-08-20T02:26:09;8.38;;;7.68;;
11427;SDS011;5770;44.504;11.346;2023-08-20T02:28:36;9.68;;;7.80;;
11427;SDS011;5770;44.504;11.346;2023-08-20T02:31:04;8.57;;;7.60;;
11427;SDS011;5770;44.504;11.346;2023-08-20T02:33:31;8.70;;;7.88;;
11427;SDS011;5770;44.504;11.346;2023-08-20T02:36:00;8.15;;;7.45;;
11427;SDS011;5770;44.504;11.346;2023-08-20T02:38:29;8.50;;;7.70;;
11427;SDS011;5770;44.504;11.346;2023-08-20T02:40:56;9.50;;;7.95;;
11427;SDS011;5770;44.504;11.346;2023-08-20T02:43:24;8.80;;;7.80;;
11427;SDS011;5770;44.504;11.346;2023-08-20T02:45:51;8.63;;;7.93;;
11427;SDS011;5770;44.504;11.346;2023-08-20T02:48:18;8.82;;;7.93;;
11427;SDS011;5770;44.504;11.346;2023-08-20T02:50:45;11.75;;;7.97;;
11427;SDS011;5770;44.504;11.346;2023-08-20T02:53:12;9.07;;;7.55;;
11427;SDS011;5770;44.504;11.346;2023-08-20T02:55:41;8.45;;;7.68;;
11427;SDS011;5770;44.504;11.346;2023-08-20T02:58:08;8.40;;;7.60;;
11427;SDS011;5770;44.504;11.346;2023-08-20T03:00:36;9.05;;;8.05;;
11427;SDS011;5770;44.504;11.346;2023-08-20T03:03:03;8.80;;;7.90;;
11427;SDS011;5770;44.504;11.346;2023-08-20T03:05:33;9.70;;;8.25;;
11427;SDS011;5770;44.504;11.346;2023-08-20T03:08:00;9.23;;;7.45;;
11427;SDS011;5770;44.504;11.346;2023-08-20T03:10:28;8.45;;;7.70;;
11427;SDS011;5770;44.504;11.346;2023-08-20T03:12:57;9.20;;;7.60;;
11427;SDS011;5770;44.504;11.346;2023-08-20T03:15:24;9.55;;;7.68;;
11427;SDS011;5770;44.504;11.346;2023-08-20T03:17:52;8.23;;;7.53;;
11427;SDS011;5770;44.504;11.346;2023-08-20T03:20:19;11.18;;;8.18;;
11427;SDS011;5770;44.504;11.346;2023-08-20T03:22:46;8.90;;;8.15;;
11427;SDS011;5770;44.504;11.346;2023-08-20T03:25:13;8.32;;;7.53;;
11427;SDS011;5770;44.504;11.346;2023-08-20T03:27:41;10.07;;;7.90;;
11427;SDS011;5770;44.504;11.346;2023-08-20T03:30:10;9.15;;;7.40;;
11427;SDS011;5770;44.504;11.346;2023-08-20T03:32:37;11.10;;;7.95;;
11427;SDS011;5770;44.504;11.346;2023-08-20T03:35:05;9.48;;;8.05;;
11427;SDS011;5770;44.504;11.346;2023-08-20T03:37:32;8.55;;;7.68;;
11427;SDS011;5770;44.504;11.346;2023-08-20T03:40:00;8.85;;;7.95;;
11427;SDS011;5770;44.504;11.346;2023-08-20T03:42:29;8.68;;;7.65;;
11427;SDS011;5770;44.504;11.346;2023-08-20T03:44:57;9.63;;;7.55;;
11427;SDS011;5770;44.504;11.346;2023-08-20T03:47:25;8.95;;;7.35;;
11427;SDS011;5770;44.504;11.346;2023-08-20T03:49:52;8.27;;;7.55;;
11427;SDS011;5770;44.504;11.346;2023-08-20T03:52:19;8.20;;;7.50;;
11427;SDS011;5770;44.504;11.346;2023-08-20T03:54:47;8.93;;;8.15;;
11427;SDS011;5770;44.504;11.346;2023-08-20T03:57:15;9.38;;;7.47;;
11427;SDS011;5770;44.504;11.346;2023-08-20T03:59:42;10.27;;;7.97;;
11427;SDS011;5770;44.504;11.346;2023-08-20T04:02:10;9.88;;;8.27;;
11427;SDS011;5770;44.504;11.346;2023-08-20T04:04:39;8.75;;;7.72;;
11427;SDS011;5770;44.504;11.346;2023-08-20T04:07:06;9.38;;;8.18;;
11427;SDS011;5770;44.504;11.346;2023-08-20T04:09:33;9.60;;;7.63;;
11427;SDS011;5770;44.504;11.346;2023-08-20T04:12:01;8.88;;;7.80;;
11427;SDS011;5770;44.504;11.346;2023-08-20T04:14:28;9.18;;;7.82;;
11427;SDS011;5770;44.504;11.346;2023-08-20T04:16:55;8.02;;;7.25;;
11427;SDS011;5770;44.504;11.346;2023-08-20T04:19:23;8.23;;;7.53;;
11427;SDS011;5770;44.504;11.346;2023-08-20T04:21:51;9.13;;;8.00;;
11427;SDS011;5770;44.504;11.346;2023-08-20T04:24:18;10.50;;;8.40;;
11427;SDS011;5770;44.504;11.346;2023-08-20T04:26:46;8.73;;;7.90;;
11427;SDS011;5770;44.504;11.346;2023-08-20T04:29:13;10.07;;;8.07;;
11427;SDS011;5770;44.504;11.346;2023-08-20T04:31:40;8.50;;;7.78;;
11427;SDS011;5770;44.504;11.346;2023-08-20T04:34:07;8.75;;;7.72;;
11427;SDS011;5770;44.504;11.346;2023-08-20T04:36:34;9.30;;;8.30;;
11427;SDS011;5770;44.504;11.346;2023-08-20T04:39:03;9.25;;;7.82;;
11427;SDS011;5770;44.504;11.346;2023-08-20T04:41:30;9.27;;;7.75;;
11427;SDS011;5770;44.504;11.346;2023-08-20T04:43:58;10.38;;;8.55;;
11427;SDS011;5770;44.504;11.346;2023-08-20T04:46:25;9.43;;;8.20;;
11427;SDS011;5770;44.504;11.346;2023-08-20T04:48:53;9.13;;;8.32;;
11427;SDS011;5770;44.504;11.346;2023-08-20T04:51:20;9.60;;;7.55;;
11427;SDS011;5770;44.504;11.346;2023-08-20T04:53:48;8.55;;;7.75;;
11427;SDS011;5770;44.504;11.346;2023-08-20T04:56:17;9.23;;;8.23;;
11427;SDS011;5770;44.504;11.346;2023-08-20T04:58:45;8.90;;;8.18;;
11427;SDS011;5770;44.504;11.346;2023-08-20T05:01:12;9.20;;;8.27;;
11427;SDS011;5770;44.504;11.346;2023-08-20T05:03:39;8.50;;;7.63;;
11427;SDS011;5770;44.504;11.346;2023-08-20T05:06:06;10.65;;;8.68;;
11427;SDS011;5770;44.504;11.346;2023-08-20T05:08:33;8.75;;;7.32;;
11427;SDS011;5770;44.504;11.346;2023-08-20T05:11:00;9.15;;;8.35;;
11427;SDS011;5770;44.504;11.346;2023-08-20T05:13:29;10.80;;;7.88;;
11427;SDS011;5770;44.504;11.346;2023-08-20T05:15:56;8.77;;;7.97;;
11427;SDS011;5770;44.504;11.346;2023-08-20T05:18:24;11.35;;;7.50;;
11427;SDS011;5770;44.504;11.346;2023-08-20T05:20:52;9.43;;;7.95;;
11427;SDS011;5770;44.504;11.346;2023-08-20T05:23:19;8.90;;;7.30;;
11427;SDS011;5770;44.504;11.346;2023-08-20T05:25:46;8.88;;;7.53;;
11427;SDS011;5770;44.504;11.346;2023-08-20T05:28:13;7.90;;;7.15;;
11427;SDS011;5770;44.504;11.346;2023-08-20T05:30:41;9.65;;;7.85;;
11427;SDS011;5770;44.504;11.346;2023-08-20T05:33:09;8.48;;;7.60;;
11427;SDS011;5770;44.504;11.346;2023-08-20T05:35:36;8.80;;;7.90;;
11427;SDS011;5770;44.504;11.346;2023-08-20T05:38:03;8.80;;;7.90;;
11427;SDS011;5770;44.504;11.346;2023-08-20T05:40:30;8.32;;;7.53;;
11427;SDS011;5770;44.504;11.346;2023-08-20T05:42:57;9.48;;;7.30;;
11427;SDS011;5770;44.504;11.346;2023-08-20T05:45:25;12.43;;;8.05;;
11427;SDS011;5770;44.504;11.346;2023-08-20T05:47:53;8.63;;;7.53;;
11427;SDS011;5770;44.504;11.346;2023-08-20T05:50:20;8.30;;;7.63;;
11427;SDS011;5770;44.504;11.346;2023-08-20T05:52:48;8.27;;;7.55;;
11427;SDS011;5770;44.504;11.346;2023-08-20T05:55:15;9.25;;;7.70;;
11427;SDS011;5770;44.504;11.346;2023-08-20T05:57:42;8.45;;;7.50;;
11427;SDS011;5770;44.504;11.346;2023-08-20T06:00:10;8.43;;;7.70;;
11427;SDS011;5770;44.504;11.346;2023-08-20T06:02:37;10.85;;;8.23;;
11427;SDS011;5770;44.504;11.346;2023-08-20T06:05:06;8.88;;;7.70;;
11427;SDS011;5770;44.504;11.346;2023-08-20T06:07:33;7.95;;;7.15;;
11427;SDS011;5770;44.504;11.346;2023-08-20T06:10:00;8.10;;;7.32;;
11427;SDS011;5770;44.504;11.346;2023-08-20T06:12:28;8.32;;;7.53;;
11427;SDS011;5770;44.504;11.346;2023-08-20T06:14:55;8.35;;;7.43;;
11427;SDS011;5770;44.504;11.346;2023-08-20T06:17:22;8.40;;;7.53;;
11427;SDS011;5770;44.504;11.346;2023-08-20T06:19:50;7.22;;;6.63;;
11427;SDS011;5770;44.504;11.346;2023-08-20T06:22:18;8.93;;;7.78;;
11427;SDS011;5770;44.504;11.346;2023-08-20T06:24:45;8.02;;;7.22;;
11427;SDS011;5770;44.504;11.346;2023-08-20T06:27:12;8.77;;;6.82;;
11427;SDS011;5770;44.504;11.346;2023-08-20T06:29:39;9.38;;;7.40;;
11427;SDS011;5770;44.504;11.346;2023-08-20T06:32:07;7.57;;;6.90;;
11427;SDS011;5770;44.504;11.346;2023-08-20T06:34:34;9.35;;;7.05;;
11427;SDS011;5770;44.504;11.346;2023-08-20T06:37:01;7.55;;;6.82;;
11427;SDS011;5770;44.504;11.346;2023-08-20T06:39:30;8.15;;;6.93;;
11427;SDS011;5770;44.504;11.346;2023-08-20T06:41:57;7.68;;;6.95;;
11427;SDS011;5770;44.504;11.346;2023-08-20T06:44:24;7.47;;;6.78;;
11427;SDS011;5770;44.504;11.346;2023-08-20T06:46:51;10.35;;;7.45;;
11427;SDS011;5770;44.504;11.346;2023-08-20T06:49:18;7.65;;;6.82;;
11427;SDS011;5770;44.504;11.346;2023-08-20T06:51:45;7.47;;;6.78;;
11427;SDS011;5770;44.504;11.346;2023-08-20T06:54:14;9.35;;;7.18;;
11427;SDS011;5770;44.504;11.346;2023-08-20T06:56:43;7.82;;;7.03;;
11427;SDS011;5770;44.504;11.346;2023-08-20T06:59:10;7.10;;;6.40;;
11427;SDS011;5770;44.504;11.346;2023-08-20T07:01:37;9.23;;;6.68;;
11427;SDS011;5770;44.504;11.346;2023-08-20T07:04:04;8.25;;;6.50;;
11427;SDS011;5770;44.504;11.346;2023-08-20T07:06:32;7.72;;;6.80;;
11427;SDS011;5770;44.504;11.346;2023-08-20T07:08:59;6.70;;;6.20;;
11427;SDS011;5770;44.504;11.346;2023-08-20T07:11:27;6.45;;;5.80;;
11427;SDS011;5770;44.504;11.346;2023-08-20T07:13:55;7.13;;;6.40;;
11427;SDS011;5770;44.504;11.346;2023-08-20T07:16:23;7.88;;;6.30;;
11427;SDS011;5770;44.504;11.346;2023-08-20T07:18:50;7.63;;;6.38;;
11427;SDS011;5770;44.504;11.346;2023-08-20T07:21:18;11.82;;;6.43;;
11427;SDS011;5770;44.504;11.346;2023-08-20T07:23:45;6.97;;;6.15;;
11427;SDS011;5770;44.504;11.346;2023-08-20T07:26:12;7.38;;;6.68;;
11427;SDS011;5770;44.504;11.346;2023-08-20T07:28:40;8.40;;;6.70;;
11427;SDS011;5770;44.504;11.346;2023-08-20T07:31:24;8.95;;;7.00;;
11427;SDS011;5770;44.504;11.346;2023-08-20T07:33:52;7.85;;;7.07;;
11427;SDS011;5770;44.504;11.346;2023-08-20T07:36:20;7.55;;;6.47;;
11427;SDS011;5770;44.504;11.346;2023-08-20T07:38:48;7.15;;;6.55;;
11427;SDS011;5770;44.504;11.346;2023-08-20T07:41:15;7.72;;;6.10;;
11427;SDS011;5770;44.504;11.346;2023-08-20T07:43:42;7.72;;;6.90;;
11427;SDS011;5770;44.504;11.346;2023-08-20T07:46:09;7.90;;;7.10;;
11427;SDS011;5770;44.504;11.346;2023-08-20T07:48:38;8.00;;;7.20;;
11427;SDS011;5770;44.504;11.346;2023-08-20T07:51:06;8.57;;;7.60;;
11427;SDS011;5770;44.504;11.346;2023-08-20T07:53:33;9.52;;;6.85;;
11427;SDS011;5770;44.504;11.346;2023-08-20T07:56:00;8.20;;;7.18;;
11427;SDS011;5770;44.504;11.346;2023-08-20T07:58:28;7.93;;;7.30;;
11427;SDS011;5770;44.504;11.346;2023-08-20T08:00:55;13.50;;;7.30;;
11427;SDS011;5770;44.504;11.346;2023-08-20T08:03:25;8.13;;;7.25;;
11427;SDS011;5770;44.504;11.346;2023-08-20T08:05:54;7.80;;;7.10;;
11427;SDS011;5770;44.504;11.346;2023-08-20T08:08:21;7.63;;;6.72;;
11427;SDS011;5770;44.504;11.346;2023-08-20T08:10:49;9.00;;;8.23;;
11427;SDS011;5770;44.504;11.346;2023-08-20T08:13:17;8.27;;;7.55;;
11427;SDS011;5770;44.504;11.346;2023-08-20T08:15:45;9.52;;;7.80;;
11427;SDS011;5770;44.504;11.346;2023-08-20T08:18:12;9.27;;;8.30;;
11427;SDS011;5770;44.504;11.346;2023-08-20T08:20:39;8.55;;;7.75;;
11427;SDS011;5770;44.504;11.346;2023-08-20T08:23:08;8.55;;;7.68;;
11427;SDS011;5770;44.504;11.346;2023-08-20T08:25:35;9.35;;;8.50;;
11427;SDS011;5770;44.504;11.346;2023-08-20T08:28:03;8.38;;;7.07;;
11427;SDS011;5770;44.504;11.346;2023-08-20T08:30:30;10.50;;;8.40;;
11427;SDS011;5770;44.504;11.346;2023-08-20T08:32:58;10.95;;;7.22;;
11427;SDS011;5770;44.504;11.346;2023-08-20T08:35:25;9.00;;;8.23;;
11427;SDS011;5770;44.504;11.346;2023-08-20T08:37:52;10.40;;;8.50;;
11427;SDS011;5770;44.504;11.346;2023-08-20T08:40:21;9.13;;;8.23;;
11427;SDS011;5770;44.504;11.346;2023-08-20T08:42:48;8.90;;;8.10;;
11427;SDS011;5770;44.504;11.346;2023-08-20T08:45:17;9.95;;;8.20;;
11427;SDS011;5770;44.504;11.346;2023-08-20T08:47:45;10.07;;;9.07;;
11427;SDS011;5770;44.504;11.346;2023-08-20T08:50:13;11.70;;;8.15;;
11427;SDS011;5770;44.504;11.346;2023-08-20T08:52:41;9.35;;;8.43;;
11427;SDS011;5770;44.504;11.346;2023-08-20T08:55:08;9.02;;;8.20;;
11427;SDS011;5770;44.504;11.346;2023-08-20T08:57:37;8.68;;;7.90;;
11427;SDS011;5770;44.504;11.346;2023-08-20T09:00:06;9.15;;;8.27;;
11427;SDS011;5770;44.504;11.346;2023-08-20T09:02:34;9.70;;;8.80;;
11427;SDS011;5770;44.504;11.346;2023-08-20T09:05:05;11.25;;;9.32;;
11427;SDS011;5770;44.504;11.346;2023-08-20T09:07:32;12.95;;;9.60;;
11427;SDS011;5770;44.504;11.346;2023-08-20T09:09:59;11.75;;;9.10;;
11427;SDS011;5770;44.504;11.346;2023-08-20T09:12:27;9.27;;;8.13;;
11427;SDS011;5770;44.504;11.346;2023-08-20T09:14:56;9.77;;;8.88;;
11427;SDS011;5770;44.504;11.346;2023-08-20T09:17:25;9.43;;;8.52;;
11427;SDS011;5770;44.504;11.346;2023-08-20T09:19:54;9.63;;;8.40;;
11427;SDS011;5770;44.504;11.346;2023-08-20T09:22:23;9.85;;;8.55;;
11427;SDS011;5770;44.504;11.346;2023-08-20T09:24:53;10.25;;;9.35;;
11427;SDS011;5770;44.504;11.346;2023-08-20T09:27:21;9.57;;;8.77;;
11427;SDS011;5770;44.504;11.346;2023-08-20T09:29:48;10.40;;;9.43;;
11427;SDS011;5770;44.504;11.346;2023-08-20T09:32:18;9.60;;;8.70;;
11427;SDS011;5770;44.504;11.346;2023-08-20T09:34:45;9.75;;;8.85;;
11427;SDS011;5770;44.504;11.346;2023-08-20T09:37:14;9.93;;;8.93;;
11427;SDS011;5770;44.504;11.346;2023-08-20T09:39:42;9.77;;;8.73;;
11427;SDS011;5770;44.504;11.346;2023-08-20T09:42:09;9.35;;;8.55;;
11427;SDS011;5770;44.504;11.346;2023-08-20T09:44:37;10.23;;;9.15;;
11427;SDS011;5770;44.504;11.346;2023-08-20T09:47:05;13.52;;;9.35;;
11427;SDS011;5770;44.504;11.346;2023-08-20T09:49:35;13.93;;;9.52;;
11427;SDS011;5770;44.504;11.346;2023-08-20T09:52:03;9.68;;;8.85;;
11427;SDS011;5770;44.504;11.346;2023-08-20T09:54:34;10.30;;;8.68;;
11427;SDS011;5770;44.504;11.346;2023-08-20T09:57:02;9.52;;;8.70;;
11427;SDS011;5770;44.504;11.346;2023-08-20T09:59:32;12.75;;;8.60;;
11427;SDS011;5770;44.504;11.346;2023-08-20T10:02:01;9.38;;;8.40;;
11427;SDS011;5770;44.504;11.346;2023-08-20T10:04:29;10.10;;;9.10;;
11427;SDS011;5770;44.504;11.346;2023-08-20T10:06:58;10.35;;;9.10;;
11427;SDS011;5770;44.504;11.346;2023-08-20T10:09:25;9.50;;;8.35;;
11427;SDS011;5770;44.504;11.346;2023-08-20T10:11:52;8.85;;;8.07;;
11427;SDS011;5770;44.504;11.346;2023-08-20T10:14:20;9.48;;;8.52;;
11427;SDS011;5770;44.504;11.346;2023-08-20T10:16:47;9.48;;;8.55;;
11427;SDS011;5770;44.504;11.346;2023-08-20T10:19:15;10.30;;;9.35;;
11427;SDS011;5770;44.504;11.346;2023-08-20T10:21:43;9.27;;;8.48;;
11427;SDS011;5770;44.504;11.346;2023-08-20T10:24:17;10.30;;;9.45;;
11427;SDS011;5770;44.504;11.346;2023-08-20T10:26:45;11.27;;;9.13;;
11427;SDS011;5770;44.504;11.346;2023-08-20T10:32:05;9.77;;;8.98;;
11427;SDS011;5770;44.504;11.346;2023-08-20T10:34:33;9.55;;;8.68;;
11427;SDS011;5770;44.504;11.346;2023-08-20T10:37:01;9.52;;;8.73;;
11427;SDS011;5770;44.504;11.346;2023-08-20T10:39:30;9.90;;;9.00;;
11427;SDS011;5770;44.504;11.346;2023-08-20T10:42:21;11.02;;;9.35;;
11427;SDS011;5770;44.504;11.346;2023-08-20T10:44:56;9.52;;;8.70;;
11427;SDS011;5770;44.504;11.346;2023-08-20T10:47:24;9.50;;;8.63;;
11427;SDS011;5770;44.504;11.346;2023-08-20T10:49:51;11.70;;;9.38;;
11427;SDS011;5770;44.504;11.346;2023-08-20T10:52:19;10.40;;;9.40;;
11427;SDS011;5770;44.504;11.346;2023-08-20T10:54:50;9.38;;;8.50;;
11427;SDS011;5770;44.504;11.346;2023-08-20T10:57:17;8.65;;;7.85;;
11427;SDS011;5770;44.504;11.346;2023-08-20T10:59:55;9.10;;;8.27;;
11427;SDS011;5770;44.504;11.346;2023-08-20T11:02:23;8.98;;;8.18;;
11427;SDS011;5770;44.504;11.346;2023-08-20T11:04:51;10.77;;;8.13;;
11427;SDS011;5770;44.504;11.346;2023-08-20T11:07:19;8.30;;;7.70;;
11427;SDS011;5770;44.504;11.346;2023-08-20T11:09:47;8.50;;;7.78;;
11427;SDS011;5770;44.504;11.346;2023-08-20T11:12:16;9.27;;;7.95;;
11427;SDS011;5770;44.504;11.346;2023-08-20T11:14:43;8.68;;;7.88;;
11427;SDS011;5770;44.504;11.346;2023-08-20T11:17:10;8.73;;;8.02;;
11427;SDS011;5770;44.504;11.346;2023-08-20T11:19:37;9.02;;;8.13;;
11427;SDS011;5770;44.504;11.346;2023-08-20T11:22:04;10.13;;;8.40;;
11427;SDS011;5770;44.504;11.346;2023-08-20T11:24:32;9.18;;;8.38;;
11427;SDS011;5770;44.504;11.346;2023-08-20T11:26:59;9.07;;;8.18;;
11427;SDS011;5770;44.504;11.346;2023-08-20T11:29:27;12.15;;;9.00;;
11427;SDS011;5770;44.504;11.346;2023-08-20T11:31:56;9.30;;;8.35;;
11427;SDS011;5770;44.504;11.346;2023-08-20T11:34:23;9.65;;;8.70;;
11427;SDS011;5770;44.504;11.346;2023-08-20T11:36:51;12.38;;;9.20;;
11427;SDS011;5770;44.504;11.346;2023-08-20T11:39:19;10.05;;;9.05;;
11427;SDS011;5770;44.504;11.346;2023-08-20T11:41:46;10.77;;;9.13;;
11427;SDS011;5770;44.504;11.346;2023-08-20T11:44:18;8.95;;;8.15;;
11427;SDS011;5770;44.504;11.346;2023-08-20T11:46:47;9.40;;;8.70;;
11427;SDS011;5770;44.504;11.346;2023-08-20T11:49:15;9.18;;;8.48;;
11427;SDS011;5770;44.504;11.346;2023-08-20T11:51:42;9.20;;;8.30;;
11427;SDS011;5770;44.504;11.346;2023-08-20T11:54:11;9.57;;;8.23;;
11427;SDS011;5770;44.504;11.346;2023-08-20T11:56:43;10.00;;;8.50;;
11427;SDS011;5770;44.504;11.346;2023-08-20T11:59:11;9.45;;;8.55;;
11427;SDS011;5770;44.504;11.346;2023-08-20T12:01:38;9.90;;;8.75;;
11427;SDS011;5770;44.504;11.346;2023-08-20T12:04:08;10.70;;;9.35;;
11427;SDS011;5770;44.504;11.346;2023-08-20T12:06:36;8.80;;;8.02;;
11427;SDS011;5770;44.504;11.346;2023-08-20T12:09:18;8.93;;;8.23;;
11427;SDS011;5770;44.504;11.346;2023-08-20T12:11:48;9.45;;;8.55;;
11427;SDS011;5770;44.504;11.346;2023-08-20T12:14:15;8.82;;;7.93;;
11427;SDS011;5770;44.504;11.346;2023-08-20T12:16:42;9.23;;;8.43;;
11427;SDS011;5770;44.504;11.346;2023-08-20T12:19:11;13.23;;;8.55;;
11427;SDS011;5770;44.504;11.346;2023-08-20T12:21:39;8.73;;;7.90;;
11427;SDS011;5770;44.504;11.346;2023-08-20T12:24:08;8.45;;;7.75;;
11427;SDS011;5770;44.504;11.346;2023-08-20T12:26:35;9.00;;;8.00;;
11427;SDS011;5770;44.504;11.346;2023-08-20T12:29:03;8.27;;;7.57;;
11427;SDS011;5770;44.504;11.346;2023-08-20T12:31:30;8.80;;;7.95;;
11427;SDS011;5770;44.504;11.346;2023-08-20T12:33:58;8.50;;;7.80;;
11427;SDS011;5770;44.504;11.346;2023-08-20T12:36:27;13.25;;;8.23;;
11427;SDS011;5770;44.504;11.346;2023-08-20T12:38:54;12.68;;;8.10;;
11427;SDS011;5770;44.504;11.346;2023-08-20T12:41:22;9.07;;;8.20;;
11427;SDS011;5770;44.504;11.346;2023-08-20T12:43:49;8.63;;;7.78;;
11427;SDS011;5770;44.504;11.346;2023-08-20T12:46:16;7.57;;;6.95;;
11427;SDS011;5770;44.504;11.346;2023-08-20T12:48:43;7.45;;;6.72;;
11427;SDS011;5770;44.504;11.346;2023-08-20T12:51:11;9.82;;;8.32;;
11427;SDS011;5770;44.504;11.346;2023-08-20T12:53:40;10.88;;;7.95;;
11427;SDS011;5770;44.504;11.346;2023-08-20T12:56:08;8.35;;;7.55;;
11427;SDS011;5770;44.504;11.346;2023-08-20T12:58:35;8.50;;;7.70;;
11427;SDS011;5770;44.504;11.346;2023-08-20T13:01:02;8.63;;;7.70;;
11427;SDS011;5770;44.504;11.346;2023-08-20T13:03:30;8.23;;;7.63;;
11427;SDS011;5770;44.504;11.346;2023-08-20T13:05:58;7.75;;;6.93;;
11427;SDS011;5770;44.504;11.346;2023-08-20T13:08:25;7.85;;;6.85;;
11427;SDS011;5770;44.504;11.346;2023-08-20T13:10:55;7.88;;;7.13;;
11427;SDS011;5770;44.504;11.346;2023-08-20T13:13:22;7.68;;;6.97;;
11427;SDS011;5770;44.504;11.346;2023-08-20T13:15:50;10.27;;;7.70;;
11427;SDS011;5770;44.504;11.346;2023-08-20T13:18:18;7.70;;;7.00;;
11427;SDS011;5770;44.504;11.346;2023-08-20T13:20:49;9.10;;;7.00;;
11427;SDS011;5770;44.504;11.346;2023-08-20T13:23:16;7.18;;;6.57;;
11427;SDS011;5770;44.504;11.346;2023-08-20T13:25:44;7.25;;;6.50;;
11427;SDS011;5770;44.504;11.346;2023-08-20T13:28:12;7.47;;;6.85;;
11427;SDS011;5770;44.504;11.346;2023-08-20T13:30:40;7.38;;;6.72;;
11427;SDS011;5770;44.504;11.346;2023-08-20T13:33:07;7.60;;;6.70;;
11427;SDS011;5770;44.504;11.346;2023-08-20T13:35:34;7.50;;;6.68;;
11427;SDS011;5770;44.504;11.346;2023-08-20T13:38:01;7.07;;;6.57;;
11427;SDS011;5770;44.504;11.346;2023-08-20T13:40:29;6.82;;;6.10;;
11427;SDS011;5770;44.504;11.346;2023-08-20T13:42:57;8.77;;;8.07;;
11427;SDS011;5770;44.504;11.346;2023-08-20T13:45:25;7.65;;;6.95;;
11427;SDS011;5770;44.504;11.346;2023-08-20T13:47:52;7.82;;;6.85;;
11427;SDS011;5770;44.504;11.346;2023-08-20T13:50:20;7.22;;;6.63;;
11427;SDS011;5770;44.504;11.346;2023-08-20T13:52:47;7.18;;;6.45;;
11427;SDS011;5770;44.504;11.346;2023-08-20T13:55:15;8.02;;;7.20;;
11427;SDS011;5770;44.504;11.346;2023-08-20T13:57:42;6.60;;;5.90;;
11427;SDS011;5770;44.504;11.346;2023-08-20T14:00:11;9.85;;;6.32;;
11427;SDS011;5770;44.504;11.346;2023-08-20T14:02:39;7.40;;;6.57;;
11427;SDS011;5770;44.504;11.346;2023-08-20T14:05:07;7.55;;;6.43;;
11427;SDS011;5770;44.504;11.346;2023-08-20T14:07:34;6.55;;;6.03;;
11427;SDS011;5770;44.504;11.346;2023-08-20T14:10:02;6.50;;;5.97;;
11427;SDS011;5770;44.504;11.346;2023-08-20T14:12:29;6.75;;;6.13;;
11427;SDS011;5770;44.504;11.346;2023-08-20T14:14:57;6.47;;;5.53;;
11427;SDS011;5770;44.504;11.346;2023-08-20T14:17:24;10.18;;;6.20;;
11427;SDS011;5770;44.504;11.346;2023-08-20T14:19:52;10.48;;;5.15;;
11427;SDS011;5770;44.504;11.346;2023-08-20T14:22:20;6.40;;;5.68;;
11427;SDS011;5770;44.504;11.346;2023-08-20T14:24:47;8.48;;;6.07;;
11427;SDS011;5770;44.504;11.346;2023-08-20T14:27:14;6.55;;;5.95;;
11427;SDS011;5770;44.504;11.346;2023-08-20T14:29:41;6.45;;;5.82;;
11427;SDS011;5770;44.504;11.346;2023-08-20T14:32:09;21.40;;;7.40;;
11427;SDS011;5770;44.504;11.346;2023-08-20T14:34:36;11.05;;;6.47;;
11427;SDS011;5770;44.504;11.346;2023-08-20T14:37:04;12.20;;;6.35;;
11427;SDS011;5770;44.504;11.346;2023-08-20T14:39:32;8.20;;;6.25;;
11427;SDS011;5770;44.504;11.346;2023-08-20T14:41:59;7.45;;;6.75;;
11427;SDS011;5770;44.504;11.346;2023-08-20T14:44:27;6.57;;;5.97;;
11427;SDS011;5770;44.504;11.346;2023-08-20T14:46:54;7.10;;;6.40;;
11427;SDS011;5770;44.504;11.346;2023-08-20T14:49:21;7.78;;;6.53;;
11427;SDS011;5770;44.504;11.346;2023-08-20T14:51:49;7.30;;;6.50;;
11427;SDS011;5770;44.504;11.346;2023-08-20T14:54:17;8.18;;;6.68;;